Time;durP1;ratioP1;P1;durP2;ratioP2;P2;SDS_P1;SDS_P2;PMS_P1;PMS_P2;Temp;Humidity;BMP_temperature;BMP_pressure;BME280_temperature;BME280_humidity;BME280_pressure;Samples;Min_cycle;Max_cycle;Signal;HPM_P1;HPM_P2
2022/10/08 00:00:47;;;;;;;9.05;3.38;;;;;;;12.97;87.45;101503.03;5024501;28;20084;-82
2022/10/08 00:03:15;;;;;;;9.30;2.78;;;;;;;12.87;90.14;101509.28;5024728;28;20468;-82
2022/10/08 00:05:41;;;;;;;9.70;2.95;;;;;;;12.89;90.19;101515.34;5041690;28;20035;-83
2022/10/08 00:08:07;;;;;;;9.10;2.80;;;;;;;12.82;91.14;101519.66;5038835;28;20036;-82
2022/10/08 00:10:33;;;;;;;12.77;3.53;;;;;;;12.61;95.45;101524.94;5042072;28;20020;-83
2022/10/08 00:12:59;;;;;;;13.52;3.10;;;;;;;12.54;95.30;101525.66;5046642;28;20033;-82
2022/10/08 00:15:25;;;;;;;13.50;3.10;;;;;;;12.68;94.21;101516.63;5022225;28;20497;-82
2022/10/08 00:17:51;;;;;;;12.73;4.60;;;;;;;12.51;96.89;101523.56;5028057;28;20031;-81
2022/10/08 00:20:17;;;;;;;10.63;4.03;;;;;;;12.57;99.60;101535.31;5040142;28;20035;-81
2022/10/08 00:22:42;;;;;;;6.60;2.80;;;;;;;12.48;100.00;101526.31;5035902;28;20071;-81
2022/10/08 00:25:09;;;;;;;8.25;3.78;;;;;;;12.54;100.00;101531.25;5022014;28;20021;-81
2022/10/08 00:27:34;;;;;;;8.77;4.57;;;;;;;12.30;100.00;101521.22;5032630;28;20436;-81
2022/10/08 00:30:00;;;;;;;6.45;3.38;;;;;;;12.40;100.00;101534.63;5046731;28;20033;-82
2022/10/08 00:32:25;;;;;;;7.38;3.83;;;;;;;12.54;100.00;101525.66;5042535;28;20030;-82
2022/10/08 00:34:51;;;;;;;9.25;3.53;;;;;;;12.39;100.00;101526.56;5030442;28;20033;-82
2022/10/08 00:37:16;;;;;;;9.70;3.70;;;;;;;12.29;100.00;101533.63;5030634;28;20108;-82
2022/10/08 00:39:43;;;;;;;6.43;3.22;;;;;;;12.44;100.00;101519.81;5026282;28;20021;-82
2022/10/08 00:42:11;;;;;;;12.07;3.03;;;;;;;12.37;100.00;101529.75;5045316;28;20078;-82
2022/10/08 00:44:52;;;;;;;5.40;2.80;;;;;;;12.37;100.00;101521.31;5027362;28;20457;-83
2022/10/08 00:47:21;;;;;;;5.70;2.47;;;;;;;12.43;100.00;101502.16;5041936;28;20100;-82
2022/10/08 00:49:50;;;;;;;6.47;2.50;;;;;;;12.33;100.00;101495.22;5047388;28;20052;-82
2022/10/08 00:52:17;;;;;;;10.05;3.08;;;;;;;12.35;100.00;101494.81;5044284;28;20477;-82
2022/10/08 00:54:43;;;;;;;12.88;3.10;;;;;;;12.46;99.18;101495.00;5046503;28;20408;-82
2022/10/08 00:57:09;;;;;;;6.18;2.22;;;;;;;12.49;100.00;101494.25;5044627;28;20028;-83
2022/10/08 00:59:36;;;;;;;3.60;2.20;;;;;;;12.41;100.00;101505.34;5026610;28;20039;-82
2022/10/08 01:02:01;;;;;;;4.97;2.00;;;;;;;12.64;99.28;101500.91;5045560;28;20079;-82
2022/10/08 01:04:28;;;;;;;7.85;2.80;;;;;;;12.52;100.00;101487.88;5032065;28;20032;-83
2022/10/08 01:07:11;;;;;;;4.38;2.47;;;;;;;12.50;100.00;101493.06;5043489;28;20025;-83
2022/10/08 01:09:55;;;;;;;3.70;1.98;;;;;;;12.49;100.00;101483.03;5039981;28;20037;-83
2022/10/08 01:12:26;;;;;;;4.20;1.80;;;;;;;12.59;99.12;101479.56;5023848;28;20055;-83
2022/10/08 01:15:05;;;;;;;4.03;2.20;;;;;;;12.68;98.90;101479.31;5037782;28;20021;-82
2022/10/08 01:17:48;;;;;;;4.97;2.10;;;;;;;12.67;100.00;101484.13;5028993;28;20098;-83
2022/10/08 01:20:21;;;;;;;6.25;2.90;;;;;;;12.54;100.00;101483.53;5026129;28;20056;-83
2022/10/08 01:23:07;;;;;;;15.10;4.15;;;;;;;12.62;100.00;101484.44;5043510;28;20514;-82
2022/10/08 01:25:44;;;;;;;4.47;2.00;;;;;;;12.49;98.03;101488.63;5045929;28;20131;-83
2022/10/08 01:28:18;;;;;;;8.80;2.08;;;;;;;12.60;98.92;101486.81;5046134;28;20037;-83
2022/10/08 01:31:17;;;;;;;4.75;2.00;;;;;;;12.53;97.90;101487.50;5043318;28;20040;-83
2022/10/08 01:33:59;;;;;;;7.13;2.00;;;;;;;12.59;99.36;101477.56;5047051;28;20419;-83
2022/10/08 01:36:27;;;;;;;4.80;2.35;;;;;;;12.55;98.25;101481.53;5043761;28;20033;-82
2022/10/08 01:39:00;;;;;;;5.85;1.80;;;;;;;12.60;96.74;101484.00;5044530;28;20040;-83
2022/10/08 01:41:28;;;;;;;4.90;1.95;;;;;;;12.65;96.74;101480.88;5039666;28;20100;-82
2022/10/08 01:44:02;;;;;;;5.80;2.13;;;;;;;12.49;98.49;101486.63;5044931;28;20024;-83
2022/10/08 01:46:30;;;;;;;5.95;2.65;;;;;;;12.60;97.66;101478.38;5046751;28;20104;-83
2022/10/08 01:49:01;;;;;;;5.25;1.85;;;;;;;12.47;97.10;101476.97;5048343;28;20075;-82
2022/10/08 01:51:31;;;;;;;9.48;2.42;;;;;;;12.30;99.05;101476.28;5028921;28;20021;-83
2022/10/08 01:54:00;;;;;;;4.50;2.08;;;;;;;12.38;100.00;101475.22;5027203;28;20037;-83
2022/10/08 01:56:28;;;;;;;4.18;2.08;;;;;;;12.28;100.00;101484.28;5042045;28;20063;-83
2022/10/08 01:59:10;;;;;;;4.75;2.42;;;;;;;12.41;98.72;101487.69;5014350;28;20476;-83
2022/10/08 02:02:00;;;;;;;9.40;1.98;;;;;;;12.37;100.00;101492.44;5020638;28;20402;-83
2022/10/08 02:04:34;;;;;;;4.50;2.08;;;;;;;12.47;99.91;101482.59;5021703;28;20025;-83
2022/10/08 02:07:13;;;;;;;8.10;2.53;;;;;;;12.37;100.00;101487.63;5024370;28;20025;-82
2022/10/08 02:09:42;;;;;;;3.25;1.90;;;;;;;12.33;100.00;101495.22;5040461;28;20029;-82
2022/10/08 02:12:08;;;;;;;5.20;2.00;;;;;;;12.25;100.00;101492.63;5019708;28;20017;-83
2022/10/08 02:14:38;;;;;;;9.45;3.03;;;;;;;12.24;100.00;101491.03;5044416;28;20439;-84
2022/10/08 02:17:17;;;;;;;5.70;2.45;;;;;;;12.13;100.00;101490.84;5041360;28;20428;-83
2022/10/08 02:19:51;;;;;;;4.05;1.83;;;;;;;12.12;100.00;101492.00;5050561;28;20484;-83
2022/10/08 02:22:20;;;;;;;6.90;1.95;;;;;;;12.13;100.00;101493.66;5033865;28;20028;-83
2022/10/08 02:24:59;;;;;;;4.88;2.10;;;;;;;12.31;100.00;101491.13;5045936;28;20024;-83
2022/10/08 02:27:49;;;;;;;5.25;2.65;;;;;;;12.15;100.00;101497.69;5030315;28;20528;-83
2022/10/08 02:30:15;;;;;;;5.53;2.60;;;;;;;12.05;100.00;101503.13;5046584;28;20025;-83
2022/10/08 02:32:50;;;;;;;6.28;2.50;;;;;;;12.17;100.00;101512.16;5049878;28;20033;-83
2022/10/08 02:35:24;;;;;;;8.98;2.40;;;;;;;12.04;100.00;101507.94;5025746;28;20065;-83
2022/10/08 02:37:58;;;;;;;10.20;2.47;;;;;;;12.10;100.00;101505.59;5050370;28;20033;-83
2022/10/08 02:40:25;;;;;;;9.20;2.72;;;;;;;12.00;100.00;101502.22;5026738;28;20026;-83
2022/10/08 02:42:56;;;;;;;3.97;2.42;;;;;;;11.99;100.00;101505.41;5028204;28;20077;-83
2022/10/08 02:45:33;;;;;;;6.05;2.08;;;;;;;12.11;100.00;101501.63;5031106;28;20167;-83
2022/10/08 02:48:06;;;;;;;3.75;1.95;;;;;;;12.20;100.00;101496.56;5030794;28;20461;-83
2022/10/08 02:50:35;;;;;;;5.75;2.60;;;;;;;12.29;100.00;101499.13;5024268;28;20068;-83
2022/10/08 02:53:00;;;;;;;9.88;3.13;;;;;;;12.16;100.00;101501.31;5049616;28;20032;-83
2022/10/08 02:55:53;;;;;;;5.93;2.50;;;;;;;12.11;100.00;101505.22;5047457;28;20049;-83
2022/10/08 02:58:19;;;;;;;4.82;2.30;;;;;;;12.24;100.00;101511.47;5043328;28;20033;-83
2022/10/08 03:00:54;;;;;;;5.07;2.70;;;;;;;11.94;100.00;101512.13;5048231;28;20029;-83
2022/10/08 03:03:31;;;;;;;7.55;2.95;;;;;;;11.93;100.00;101507.72;5048021;28;20515;-83
2022/10/08 03:06:01;;;;;;;6.60;2.55;;;;;;;11.88;100.00;101521.19;5042315;28;20481;-82
2022/10/08 03:08:26;;;;;;;5.07;2.63;;;;;;;11.94;100.00;101514.94;5023329;28;20040;-83
2022/10/08 03:10:52;;;;;;;8.85;2.90;;;;;;;11.90;100.00;101525.28;5047076;28;20028;-82
2022/10/08 03:13:18;;;;;;;6.65;2.80;;;;;;;11.82;100.00;101523.50;5042741;28;20480;-83
2022/10/08 03:15:44;;;;;;;4.90;2.60;;;;;;;11.91;100.00;101532.53;5048459;28;20032;-83
2022/10/08 03:18:11;;;;;;;5.47;2.47;;;;;;;11.90;100.00;101513.25;5028358;28;20044;-83
2022/10/08 03:20:45;;;;;;;7.40;2.55;;;;;;;11.95;100.00;101527.81;5031814;28;20024;-83
2022/10/08 03:23:14;;;;;;;6.55;2.35;;;;;;;11.92;100.00;101527.72;5043114;28;20298;-83
2022/10/08 03:25:39;;;;;;;6.32;2.15;;;;;;;12.10;100.00;101516.81;5037463;28;20563;-83
2022/10/08 03:28:05;;;;;;;4.53;2.10;;;;;;;12.24;100.00;101522.69;5030401;28;20139;-83
2022/10/08 03:30:30;;;;;;;7.28;2.10;;;;;;;12.15;100.00;101516.53;5042854;28;20057;-83
2022/10/08 03:32:55;;;;;;;6.32;2.60;;;;;;;12.17;100.00;101522.59;5046647;28;20067;-83
2022/10/08 03:35:20;;;;;;;9.38;2.53;;;;;;;12.16;100.00;101520.94;5021577;28;20033;-83
2022/10/08 03:37:46;;;;;;;9.68;2.08;;;;;;;12.19;100.00;101526.63;5043921;28;20389;-83
2022/10/08 03:40:11;;;;;;;5.75;2.00;;;;;;;12.14;100.00;101531.72;5031433;28;20036;-83
2022/10/08 03:42:36;;;;;;;4.43;1.95;;;;;;;12.17;100.00;101529.00;5041180;28;20029;-83
2022/10/08 03:45:02;;;;;;;7.38;2.53;;;;;;;12.09;100.00;101537.66;5030103;28;20361;-83
2022/10/08 03:47:28;;;;;;;15.32;3.00;;;;;;;11.92;100.00;101534.13;5044621;28;20116;-83
2022/10/08 03:49:53;;;;;;;6.97;2.72;;;;;;;11.91;100.00;101543.75;5037351;28;20017;-83
2022/10/08 03:52:18;;;;;;;9.40;3.30;;;;;;;12.03;100.00;101544.75;5046323;28;20079;-83
2022/10/08 03:54:44;;;;;;;8.13;2.15;;;;;;;12.03;100.00;101544.75;5041276;28;20053;-83
2022/10/08 03:57:09;;;;;;;8.43;2.45;;;;;;;11.95;100.00;101555.84;5020925;28;20034;-83
2022/10/08 03:59:34;;;;;;;8.45;3.38;;;;;;;11.70;100.00;101544.09;5026209;28;20029;-83
2022/10/08 04:02:00;;;;;;;3.40;1.88;;;;;;;11.78;100.00;101545.03;5024331;28;20079;-83
2022/10/08 04:04:25;;;;;;;6.28;2.33;;;;;;;11.83;100.00;101547.56;5025083;28;20025;-83
2022/10/08 04:06:50;;;;;;;4.60;2.85;;;;;;;11.93;100.00;101540.56;5029046;28;20083;-83
2022/10/08 04:09:16;;;;;;;7.43;2.65;;;;;;;12.04;100.00;101557.59;5023713;28;20048;-83
2022/10/08 04:11:41;;;;;;;5.82;2.55;;;;;;;12.03;100.00;101564.41;5022585;28;20025;-83
2022/10/08 04:14:06;;;;;;;6.47;2.22;;;;;;;12.06;99.64;101558.03;5020990;28;20484;-83
2022/10/08 04:16:32;;;;;;;5.80;2.03;;;;;;;12.11;99.60;101563.38;5022007;28;20025;-83
2022/10/08 04:18:57;;;;;;;6.70;2.00;;;;;;;11.94;100.00;101565.44;5017474;28;20116;-83
2022/10/08 04:21:22;;;;;;;5.90;2.00;;;;;;;11.95;100.00;101567.09;5026131;28;20474;-83
2022/10/08 04:23:51;;;;;;;5.45;2.08;;;;;;;12.00;99.47;101566.78;5022927;28;20450;-83
2022/10/08 04:26:16;;;;;;;10.13;3.10;;;;;;;11.94;100.00;101571.06;5021600;28;21717;-83
2022/10/08 04:28:43;;;;;;;7.53;2.33;;;;;;;12.08;98.19;101567.72;5025292;28;20136;-83
2022/10/08 04:31:17;;;;;;;3.83;1.88;;;;;;;12.14;97.76;101573.81;5026742;28;20041;-83
2022/10/08 04:33:44;;;;;;;5.90;2.28;;;;;;;12.04;99.76;101569.66;5024504;28;20026;-83
2022/10/08 04:36:13;;;;;;;7.68;3.60;;;;;;;12.00;99.61;101569.56;5026862;28;20079;-83
2022/10/08 04:38:38;;;;;;;8.43;2.47;;;;;;;11.84;100.00;101576.41;5024429;28;20026;-83
2022/10/08 04:41:07;;;;;;;4.68;2.15;;;;;;;11.93;98.75;101575.06;5024426;28;20370;-83
2022/10/08 04:43:37;;;;;;;6.15;2.90;;;;;;;11.99;98.48;101569.94;5021420;28;20433;-83
2022/10/08 04:46:03;;;;;;;9.77;3.08;;;;;;;11.93;100.00;101569.44;5021979;28;20393;-83
2022/10/08 04:48:29;;;;;;;9.52;3.60;;;;;;;11.54;100.00;101574.19;5020376;28;20456;-83
2022/10/08 04:50:59;;;;;;;7.07;3.05;;;;;;;11.59;100.00;101571.09;5025373;28;20033;-82
2022/10/08 04:53:25;;;;;;;8.90;2.88;;;;;;;11.82;100.00;101578.78;5019575;28;20021;-83
2022/10/08 04:55:52;;;;;;;10.15;3.05;;;;;;;11.78;100.00;101579.53;5042878;28;20151;-83
2022/10/08 04:58:17;;;;;;;7.45;4.28;;;;;;;11.64;100.00;101568.03;5045099;28;20032;-84
2022/10/08 05:00:43;;;;;;;6.25;2.67;;;;;;;11.73;100.00;101570.59;5041044;28;20021;-83
2022/10/08 05:03:08;;;;;;;7.22;3.40;;;;;;;11.64;100.00;101575.59;5023422;28;20037;-83
2022/10/08 05:05:38;;;;;;;8.75;4.25;;;;;;;11.69;100.00;101581.72;5044033;28;20039;-83
2022/10/08 05:08:04;;;;;;;4.10;3.20;;;;;;;11.77;100.00;101579.91;5047166;28;20028;-83
2022/10/08 05:10:29;;;;;;;11.75;3.72;;;;;;;11.71;100.00;101584.19;5040144;28;20029;-82
2022/10/08 05:12:54;;;;;;;9.50;4.07;;;;;;;11.55;100.00;101587.03;5041195;28;20372;-83
2022/10/08 05:15:19;;;;;;;6.32;4.35;;;;;;;11.51;100.00;101595.38;5038134;28;20064;-83
2022/10/08 05:17:45;;;;;;;14.68;4.97;;;;;;;11.57;100.00;101598.69;5023447;28;20546;-84
2022/10/08 05:20:10;;;;;;;10.93;3.75;;;;;;;11.45;100.00;101593.22;5043213;28;20068;-84
2022/10/08 05:22:35;;;;;;;10.93;4.57;;;;;;;11.60;100.00;101601.59;5025165;28;20367;-84
2022/10/08 05:25:01;;;;;;;11.57;3.67;;;;;;;11.58;100.00;101603.13;5029874;28;20126;-84
2022/10/08 05:27:26;;;;;;;6.30;3.25;;;;;;;11.67;100.00;101595.31;5040119;28;20021;-84
2022/10/08 05:29:52;;;;;;;12.32;4.32;;;;;;;11.48;100.00;101598.91;5038927;28;20400;-84
2022/10/08 05:32:17;;;;;;;10.73;4.05;;;;;;;11.58;100.00;101609.53;5026883;28;20059;-85
2022/10/08 05:34:42;;;;;;;11.82;4.80;;;;;;;11.55;100.00;101610.28;5038323;28;20039;-84
2022/10/08 05:37:07;;;;;;;11.95;5.30;;;;;;;11.52;100.00;101619.41;5022156;28;20043;-84
2022/10/08 05:39:33;;;;;;;12.32;4.50;;;;;;;11.49;100.00;101622.13;5045842;28;20629;-84
2022/10/08 05:41:58;;;;;;;9.10;4.82;;;;;;;11.45;100.00;101627.69;5039262;28;20040;-83
2022/10/08 05:44:23;;;;;;;13.15;4.88;;;;;;;11.45;100.00;101622.06;5024573;28;20063;-83
2022/10/08 05:46:49;;;;;;;15.10;5.88;;;;;;;11.27;100.00;101626.44;5040679;28;20504;-83
2022/10/08 05:49:20;;;;;;;14.07;4.40;;;;;;;11.48;100.00;101638.16;5053596;28;20373;-83
2022/10/08 05:51:47;;;;;;;15.10;4.55;;;;;;;11.48;100.00;101632.53;5035688;28;20025;-83
2022/10/08 05:54:13;;;;;;;8.38;4.82;;;;;;;11.55;100.00;101637.50;5041333;28;20103;-83
2022/10/08 05:56:38;;;;;;;6.32;4.03;;;;;;;11.41;100.00;101638.00;5026988;28;20131;-84
2022/10/08 05:59:04;;;;;;;9.38;4.80;;;;;;;11.44;100.00;101642.88;5040134;28;20037;-84
2022/10/08 06:01:31;;;;;;;10.52;4.88;;;;;;;11.57;100.00;101649.16;5021018;28;20090;-84
2022/10/08 06:04:02;;;;;;;14.50;5.85;;;;;;;11.33;100.00;101650.22;5047955;28;20021;-83
2022/10/08 06:06:27;;;;;;;11.00;4.70;;;;;;;11.28;100.00;101653.28;5022108;28;20024;-83
2022/10/08 06:08:54;;;;;;;14.18;5.78;;;;;;;11.14;100.00;101651.78;5046621;28;20051;-84
2022/10/08 06:11:20;;;;;;;18.15;6.43;;;;;;;11.18;100.00;101647.06;5026171;28;20064;-84
2022/10/08 06:13:45;;;;;;;15.55;5.10;;;;;;;11.18;100.00;101658.28;5038631;28;20179;-84
2022/10/08 06:16:11;;;;;;;9.98;4.35;;;;;;;11.33;100.00;101659.44;5030087;28;20031;-84
2022/10/08 06:18:39;;;;;;;12.82;4.72;;;;;;;11.29;100.00;101663.34;5043163;28;20044;-84
2022/10/08 06:21:11;;;;;;;12.55;4.97;;;;;;;11.28;100.00;101670.09;5027152;28;20021;-84
2022/10/08 06:23:38;;;;;;;13.55;6.03;;;;;;;11.37;100.00;101676.34;5042498;28;20074;-83
2022/10/08 06:26:08;;;;;;;14.35;4.95;;;;;;;11.34;100.00;101682.66;5029059;28;20041;-83
2022/10/08 06:28:36;;;;;;;11.32;4.38;;;;;;;11.34;100.00;101688.28;5047063;28;20071;-83
2022/10/08 06:31:01;;;;;;;13.13;5.32;;;;;;;11.28;100.00;101689.72;5024732;28;20468;-83
2022/10/08 06:33:27;;;;;;;12.73;5.28;;;;;;;11.29;100.00;101702.56;5045626;28;20131;-83
2022/10/08 06:35:53;;;;;;;10.73;4.88;;;;;;;11.25;100.00;101699.66;5050452;28;20115;-83
2022/10/08 06:38:18;;;;;;;11.10;4.78;;;;;;;11.26;100.00;101703.28;5042723;28;20024;-83
2022/10/08 06:40:43;;;;;;;10.13;4.35;;;;;;;11.23;100.00;101698.41;5047892;28;20404;-83
2022/10/08 06:43:15;;;;;;;14.07;5.78;;;;;;;11.13;100.00;101708.16;5030049;28;20055;-83
2022/10/08 06:45:41;;;;;;;12.70;5.95;;;;;;;11.18;100.00;101714.31;5036057;28;20775;-83
2022/10/08 06:48:07;;;;;;;10.05;4.88;;;;;;;11.14;100.00;101719.03;5022319;28;20021;-83
2022/10/08 06:50:34;;;;;;;11.35;4.93;;;;;;;11.27;100.00;101722.53;5029999;28;20043;-83
2022/10/08 06:52:59;;;;;;;12.68;4.47;;;;;;;11.32;100.00;101736.31;5027323;28;20033;-84
2022/10/08 06:55:25;;;;;;;19.17;5.38;;;;;;;11.34;100.00;101733.13;5045392;28;20045;-83
2022/10/08 06:57:50;;;;;;;8.40;3.58;;;;;;;11.43;100.00;101735.75;5035538;28;20046;-83
2022/10/08 07:00:15;;;;;;;9.30;4.80;;;;;;;11.33;100.00;101732.31;5034147;28;20040;-83
2022/10/08 07:02:41;;;;;;;9.10;4.47;;;;;;;11.42;100.00;101743.34;5014057;28;20017;-83
2022/10/08 07:05:07;;;;;;;11.05;4.40;;;;;;;11.34;100.00;101744.31;5029590;28;20040;-83
2022/10/08 07:07:32;;;;;;;6.63;3.88;;;;;;;11.41;100.00;101755.75;5037726;28;20537;-83
2022/10/08 07:09:57;;;;;;;9.32;3.83;;;;;;;11.56;100.00;101751.28;5022737;28;20029;-83
2022/10/08 07:12:23;;;;;;;13.50;4.07;;;;;;;11.46;100.00;101763.84;5026615;28;20385;-83
2022/10/08 07:14:48;;;;;;;11.45;4.57;;;;;;;11.51;100.00;101768.38;5026363;28;20412;-83
2022/10/08 07:17:13;;;;;;;9.57;3.70;;;;;;;11.60;100.00;101767.03;5028359;28;20056;-83
2022/10/08 07:19:39;;;;;;;9.15;3.83;;;;;;;11.49;100.00;101779.97;5047720;28;20035;-83
2022/10/08 07:22:04;;;;;;;10.57;4.05;;;;;;;11.51;100.00;101783.22;5045913;28;20119;-83
2022/10/08 07:24:29;;;;;;;7.22;3.90;;;;;;;11.49;100.00;101779.13;5029096;28;20035;-83
2022/10/08 07:26:55;;;;;;;17.48;4.75;;;;;;;11.60;100.00;101794.25;5043673;28;20436;-83
2022/10/08 07:29:23;;;;;;;11.65;4.13;;;;;;;11.72;100.00;101798.94;5045229;28;20124;-83
2022/10/08 07:31:48;;;;;;;11.10;3.50;;;;;;;11.72;100.00;101798.94;5033379;28;20200;-83
2022/10/08 07:34:14;;;;;;;9.48;3.47;;;;;;;11.63;100.00;101801.13;5034845;28;20120;-83
2022/10/08 07:36:40;;;;;;;15.85;3.53;;;;;;;11.69;100.00;101805.28;5024191;28;20143;-83
2022/10/08 07:39:09;;;;;;;13.38;3.47;;;;;;;11.66;100.00;101803.19;5020747;28;20028;-83
2022/10/08 07:41:35;;;;;;;10.05;3.25;;;;;;;11.67;100.00;101802.84;5044479;28;20120;-83
2022/10/08 07:44:01;;;;;;;12.85;3.22;;;;;;;11.71;100.00;101812.16;5042398;28;20441;-83
2022/10/08 07:46:29;;;;;;;11.65;3.50;;;;;;;11.62;100.00;101816.34;5027086;28;20143;-82
2022/10/08 07:48:58;;;;;;;8.18;2.78;;;;;;;11.58;100.00;101822.66;5029395;28;20078;-83
2022/10/08 07:51:25;;;;;;;10.45;3.10;;;;;;;11.68;100.00;101810.09;5041162;28;20028;-83
2022/10/08 07:53:50;;;;;;;9.38;2.72;;;;;;;11.69;100.00;101819.31;5051190;28;20568;-83
2022/10/08 07:56:18;;;;;;;9.85;3.53;;;;;;;11.77;100.00;101826.72;5050383;28;20032;-83
2022/10/08 07:58:44;;;;;;;11.48;2.55;;;;;;;11.68;100.00;101812.06;5049287;28;20123;-83
2022/10/08 08:01:17;;;;;;;8.18;2.53;;;;;;;11.67;100.00;101825.28;5026358;28;20033;-83
2022/10/08 08:03:43;;;;;;;9.50;2.97;;;;;;;11.76;100.00;101827.88;5032610;28;20473;-83
2022/10/08 08:06:13;;;;;;;8.13;2.47;;;;;;;11.85;99.03;101836.94;5043932;28;20036;-83
2022/10/08 08:08:42;;;;;;;8.88;2.38;;;;;;;11.85;99.51;101841.72;5042528;28;20043;-83
2022/10/08 08:11:10;;;;;;;6.78;2.50;;;;;;;11.84;99.54;101846.53;5040152;28;20111;-83
2022/10/08 08:13:37;;;;;;;5.20;2.00;;;;;;;11.87;98.42;101845.81;5041830;28;20033;-83
2022/10/08 08:16:05;;;;;;;6.35;2.03;;;;;;;11.85;98.42;101836.94;5026517;28;20505;-83
2022/10/08 08:18:33;;;;;;;6.60;2.03;;;;;;;11.93;97.95;101851.97;5018392;28;20095;-83
2022/10/08 08:21:07;;;;;;;9.68;2.10;;;;;;;11.97;97.74;101858.47;5028744;28;20043;-83
2022/10/08 08:23:36;;;;;;;6.53;2.00;;;;;;;11.96;96.94;101854.06;5037549;28;20025;-83
2022/10/08 08:26:06;;;;;;;10.32;2.80;;;;;;;12.00;97.99;101861.38;5039004;28;20025;-83
2022/10/08 08:28:32;;;;;;;8.30;1.98;;;;;;;11.96;98.25;101876.50;5035280;28;20082;-83
2022/10/08 08:31:15;;;;;;;6.28;1.70;;;;;;;12.04;97.83;101874.69;5027951;28;20032;-84
2022/10/08 08:33:45;;;;;;;9.38;1.70;;;;;;;12.10;97.44;101887.25;5038762;28;20128;-83
2022/10/08 08:36:11;;;;;;;7.05;2.05;;;;;;;12.11;95.82;101877.66;5021658;28;20036;-83
2022/10/08 08:38:37;;;;;;;7.47;2.13;;;;;;;12.16;97.51;101888.59;5023374;28;20036;-83
2022/10/08 08:41:37;;;;;;;10.20;2.75;;;;;;;12.18;96.46;101900.28;5035741;28;20025;-83
2022/10/08 08:44:15;;;;;;;9.07;2.30;;;;;;;12.20;95.21;101897.94;5013507;28;20068;-83
2022/10/08 08:46:45;;;;;;;9.30;2.25;;;;;;;12.30;97.91;101897.38;5033492;28;20064;-84
2022/10/08 08:49:32;;;;;;;10.30;2.30;;;;;;;12.27;95.02;101903.72;5023702;28;20074;-83
2022/10/08 08:52:00;;;;;;;6.60;2.20;;;;;;;12.32;94.47;101909.06;5027306;28;20392;-82
2022/10/08 08:54:26;;;;;;;11.20;2.55;;;;;;;12.32;93.79;101909.06;5042683;28;20391;-83
2022/10/08 08:56:52;;;;;;;10.35;1.98;;;;;;;12.49;95.64;101915.47;5020219;28;20025;-82
2022/10/08 08:59:40;;;;;;;7.32;1.88;;;;;;;12.55;92.59;101922.41;5035466;28;20059;-83
2022/10/08 09:02:17;;;;;;;6.38;1.60;;;;;;;12.50;92.51;101926.34;5010424;28;20718;-83
2022/10/08 09:04:49;;;;;;;7.90;2.10;;;;;;;12.50;93.70;101936.72;5041238;28;20120;-83
2022/10/08 09:07:18;;;;;;;8.23;1.85;;;;;;;12.56;91.62;101927.66;5024949;28;20020;-82
2022/10/08 09:09:47;;;;;;;7.57;2.05;;;;;;;12.47;90.76;101934.66;5017766;28;20094;-83
2022/10/08 09:12:26;;;;;;;7.20;1.77;;;;;;;12.57;92.05;101945.34;5017039;28;20036;-83
2022/10/08 09:14:54;;;;;;;8.73;1.60;;;;;;;12.51;90.84;101947.59;5046867;28;20128;-83
2022/10/08 09:17:40;;;;;;;11.25;1.55;;;;;;;12.64;90.03;101947.50;5041182;28;20056;-83
2022/10/08 09:20:06;;;;;;;6.72;1.48;;;;;;;12.67;88.83;101952.38;5046646;28;20031;-83
2022/10/08 09:22:37;;;;;;;8.45;1.55;;;;;;;12.70;88.78;101960.88;5054008;28;20020;-83
2022/10/08 09:25:13;;;;;;;5.57;1.60;;;;;;;12.67;88.63;101967.25;5038785;28;20396;-83
2022/10/08 09:27:49;;;;;;;6.00;1.38;;;;;;;12.66;88.51;101959.97;5044255;28;20333;-83
2022/10/08 09:30:43;;;;;;;8.70;1.77;;;;;;;12.60;88.70;101961.44;5044268;28;20021;-83
2022/10/08 09:33:11;;;;;;;9.40;1.90;;;;;;;12.63;88.74;101976.75;5040651;28;20128;-83
2022/10/08 09:35:42;;;;;;;10.60;2.00;;;;;;;12.58;87.82;101969.41;5041859;28;20052;-83
2022/10/08 09:38:19;;;;;;;9.88;1.67;;;;;;;12.57;88.39;101979.03;5028849;28;20510;-83
2022/10/08 09:41:05;;;;;;;6.03;1.50;;;;;;;12.64;88.08;101979.19;5023581;28;20730;-83
2022/10/08 09:43:32;;;;;;;8.68;1.33;;;;;;;12.68;87.13;101971.66;5041440;28;20063;-83
2022/10/08 09:45:58;;;;;;;9.00;2.42;;;;;;;12.90;86.68;101974.97;5045445;28;20040;-83
2022/10/08 09:48:28;;;;;;;8.23;2.03;;;;;;;12.93;86.34;101971.44;5041895;28;20484;-83
2022/10/08 09:51:02;;;;;;;10.30;1.70;;;;;;;13.00;87.01;101980.00;5039066;28;20029;-83
2022/10/08 09:53:57;;;;;;;8.10;2.10;;;;;;;13.30;85.48;101987.91;5039358;28;21134;-83
2022/10/08 09:56:29;;;;;;;4.97;1.25;;;;;;;13.15;85.96;101981.94;5033877;28;20548;-83
2022/10/08 09:59:01;;;;;;;11.00;1.65;;;;;;;13.09;86.58;101994.69;5042683;28;20166;-83
2022/10/08 10:01:30;;;;;;;5.73;1.40;;;;;;;13.08;86.06;101998.66;5036896;28;20174;-82
2022/10/08 10:03:57;;;;;;;10.70;2.03;;;;;;;13.49;83.05;101998.34;5029557;28;20507;-83
2022/10/08 10:06:36;;;;;;;8.50;1.52;;;;;;;13.55;84.06;102005.28;5025312;28;20060;-82
2022/10/08 10:09:01;;;;;;;8.57;1.63;;;;;;;13.30;82.76;102011.22;5042357;28;20028;-83
2022/10/08 10:11:32;;;;;;;8.40;1.77;;;;;;;13.29;82.79;102003.97;5023000;28;20040;-83
2022/10/08 10:14:10;;;;;;;6.85;1.33;;;;;;;13.22;85.01;101998.97;5041246;28;20013;-83
2022/10/08 10:16:39;;;;;;;14.57;2.38;;;;;;;13.29;83.13;102014.41;5035269;28;20033;-83
2022/10/08 10:19:14;;;;;;;8.20;3.08;;;;;;;13.35;84.27;102010.13;5040137;28;20025;-83
2022/10/08 10:21:42;;;;;;;4.63;1.10;;;;;;;13.46;81.38;102015.97;5016210;28;20036;-83
2022/10/08 10:24:29;;;;;;;6.20;1.60;;;;;;;13.63;80.56;102007.88;5045294;28;20507;-83
2022/10/08 10:27:04;;;;;;;6.90;2.22;;;;;;;13.32;82.52;102019.28;5019144;28;20112;-83
2022/10/08 10:29:40;;;;;;;6.43;1.50;;;;;;;13.34;80.65;102022.53;5029390;28;20047;-83
2022/10/08 10:32:13;;;;;;;7.30;1.65;;;;;;;13.15;83.20;102038.16;5026394;28;20363;-82
2022/10/08 10:34:39;;;;;;;;;;;;;;;13.22;80.31;102035.53;5041518;28;20037;-82
2022/10/08 10:37:10;;;;;;;4.50;1.10;;;;;;;13.14;82.70;102039.34;5026004;28;19969;-82
2022/10/08 10:39:52;;;;;;;5.03;1.02;;;;;;;13.02;82.84;102039.47;5053631;28;20477;-82
2022/10/08 10:42:36;;;;;;;4.78;1.40;;;;;;;13.08;80.46;102049.25;5044066;28;20099;-83
2022/10/08 10:45:24;;;;;;;3.90;1.60;;;;;;;12.99;80.19;102048.66;5044540;28;20473;-82
2022/10/08 10:47:50;;;;;;;6.28;1.23;;;;;;;13.19;81.37;102050.31;5027571;28;20029;-82
2022/10/08 10:50:47;;;;;;;3.08;1.02;;;;;;;13.16;80.10;102041.81;5047457;28;20549;-83
2022/10/08 10:53:36;;;;;;;8.65;1.77;;;;;;;13.30;79.23;102044.13;5014458;28;20090;-82
2022/10/08 10:56:14;;;;;;;7.35;2.50;;;;;;;13.39;82.54;102058.81;5044271;28;20492;-82
2022/10/08 10:59:16;;;;;;;6.18;1.13;;;;;;;13.32;82.77;102053.03;5041698;28;20037;-83
2022/10/08 11:01:51;;;;;;;6.68;1.60;;;;;;;13.40;81.35;102054.81;5025754;28;20033;-83
2022/10/08 11:04:28;;;;;;;8.52;1.90;;;;;;;13.47;82.56;102054.97;5032648;28;20060;-83
2022/10/08 11:07:14;;;;;;;7.45;1.50;;;;;;;13.64;80.85;102048.09;5051114;28;20029;-83
2022/10/08 11:09:43;;;;;;;12.48;1.70;;;;;;;13.59;81.24;102057.63;5027385;28;20024;-83
2022/10/08 11:12:46;;;;;;;7.65;1.77;;;;;;;13.49;82.33;102046.16;5041890;28;20092;-82
2022/10/08 11:15:19;;;;;;;5.00;1.60;;;;;;;13.65;80.17;102057.34;5024835;28;20041;-84
2022/10/08 11:18:05;;;;;;;15.77;2.85;;;;;;;13.26;79.58;102055.28;5024463;28;20033;-84
2022/10/08 11:21:15;;;;;;;13.02;2.05;;;;;;;13.17;78.73;102063.09;5019414;28;20037;-83
2022/10/08 11:23:59;;;;;;;16.88;2.30;;;;;;;13.18;79.40;102048.69;4966715;28;20022;-83
2022/10/08 11:26:49;;;;;;;6.35;1.50;;;;;;;13.18;79.12;102068.38;4983879;28;20157;-83
2022/10/08 11:29:35;;;;;;;6.95;1.52;;;;;;;13.14;82.21;102061.84;5019373;28;20037;-83
2022/10/08 11:32:01;;;;;;;8.15;1.83;;;;;;;13.28;79.79;102064.19;5041935;28;20061;-83
2022/10/08 11:34:32;;;;;;;13.38;2.85;;;;;;;13.71;81.41;102069.94;5037628;28;20568;-81